Terminal Aerodrome Forecast
Issued by NWS

Home | Current Version | Previous Version | Text Only | Print | Product List | Glossary On
Versions: 1 2 3 4 5 6 7 8 9 10 11 12 13 14 15
000
FTUS44 KLZK 201100
TAFHRO
TAF
KHRO 201140Z 2012/2112 25006KT P6SM VCSH SCT035 BKN060
      TEMPO 2012/2015 BKN030
     FM202000 30006KT P6SM SCT035 BKN060
     FM210100 VRB03KT P6SM SCT060 SCT250
      TEMPO 2108/2112 4SM BR=

USA.gov is the U.S. government's official web portal to all federal, state and local government web resources and services.